createdAt,value
2018-12-21T00:00:41.665Z,101077.39
2018-12-21T00:02:44.496Z,101075.84
2018-12-21T00:04:46.201Z,101078.70
2018-12-21T00:06:47.804Z,101066.91
2018-12-21T00:08:49.297Z,101072.95
2018-12-21T00:10:50.713Z,101065.28
2018-12-21T00:12:52.154Z,101066.00
2018-12-21T00:14:53.647Z,101066.29
2018-12-21T00:16:55.251Z,101061.02
2018-12-21T00:18:56.718Z,101064.63
2018-12-21T00:20:58.203Z,101063.20
2018-12-21T00:22:59.703Z,101058.53
2018-12-21T00:25:01.178Z,101066.41
2018-12-21T00:27:02.886Z,101058.64
2018-12-21T00:29:04.396Z,101064.54
2018-12-21T00:31:12.152Z,101059.72
2018-12-21T00:33:19.896Z,101062.62
2018-12-21T00:35:27.385Z,101061.77
2018-12-21T00:37:35.032Z,101067.80
2018-12-21T00:39:42.727Z,101061.97
2018-12-21T00:41:44.108Z,101065.81
2018-12-21T00:43:47.563Z,101054.96
2018-12-21T00:45:51.097Z,101057.31
2018-12-21T00:47:52.670Z,101059.46
2018-12-21T00:49:54.150Z,101060.14
2018-12-21T00:51:55.706Z,101055.79
2018-12-21T00:53:57.154Z,101061.70
2018-12-21T00:55:58.686Z,101059.18
2018-12-21T00:58:00.369Z,101057.96
2018-12-21T01:00:03.176Z,101060.57
2018-12-21T01:02:04.719Z,101062.95
2018-12-21T01:04:06.198Z,101068.63
2018-12-21T01:06:07.822Z,101068.55
2018-12-21T01:08:09.482Z,101064.48
2018-12-21T01:10:11.398Z,101068.54
2018-12-21T01:12:12.927Z,101069.62
2018-12-21T01:14:14.536Z,101067.56
2018-12-21T01:16:16.039Z,101064.53
2018-12-21T01:18:17.595Z,101057.97
2018-12-21T01:20:19.042Z,101061.44
2018-12-21T01:22:20.550Z,101058.99
2018-12-21T01:24:22.009Z,101058.93
2018-12-21T01:26:23.559Z,101058.62
2018-12-21T01:28:25.076Z,101058.98
2018-12-21T01:30:26.619Z,101054.16
2018-12-21T01:32:28.157Z,101053.25
2018-12-21T01:34:29.765Z,101060.55
2018-12-21T01:36:31.243Z,101062.89
2018-12-21T01:38:32.752Z,101055.23
2018-12-21T01:40:34.487Z,101050.16
2018-12-21T01:42:35.942Z,101057.83
2018-12-21T01:44:37.297Z,101060.36
2018-12-21T01:46:38.813Z,101055.34
2018-12-21T01:48:40.260Z,101056.28
2018-12-21T01:50:41.708Z,101055.06
2018-12-21T01:52:43.194Z,101051.27
2018-12-21T01:54:44.642Z,101055.54
2018-12-21T01:56:46.070Z,101053.20
2018-12-21T01:58:48.067Z,101049.78
2018-12-21T02:00:49.486Z,101048.80
2018-12-21T02:02:50.926Z,101042.80
2018-12-21T02:04:52.552Z,101046.19
2018-12-21T02:06:54.081Z,101047.45
2018-12-21T02:08:55.525Z,101038.74
2018-12-21T02:10:57.133Z,101033.56
2018-12-21T02:12:58.552Z,101033.13
2018-12-21T02:15:00.195Z,101034.77
2018-12-21T02:17:01.640Z,101026.18
2018-12-21T02:19:03.290Z,101029.34
2018-12-21T02:21:04.785Z,101031.34
2018-12-21T02:23:06.270Z,101027.48
2018-12-21T02:25:07.713Z,101025.48
2018-12-21T02:27:09.085Z,101025.22
2018-12-21T02:29:10.555Z,101021.94
2018-12-21T02:31:12.025Z,101023.60
2018-12-21T02:33:13.507Z,101030.13
2018-12-21T02:35:14.961Z,101026.79
2018-12-21T02:37:16.434Z,101025.69
2018-12-21T02:39:17.976Z,101021.95
2018-12-21T02:41:19.393Z,101025.57
2018-12-21T02:43:21.090Z,101022.91
2018-12-21T02:45:22.655Z,101025.48
2018-12-21T02:47:24.138Z,101025.44
2018-12-21T02:49:25.584Z,101034.40
2018-12-21T02:51:27.134Z,101028.52
2018-12-21T02:53:28.609Z,101030.26
2018-12-21T02:55:30.261Z,101032.69
2018-12-21T02:57:31.626Z,101030.24
2018-12-21T02:59:33.206Z,101026.11
2018-12-21T03:01:34.809Z,101027.48
2018-12-21T03:03:36.277Z,101026.23
2018-12-21T03:05:37.886Z,101023.56
2018-12-21T03:07:39.336Z,101022.10
2018-12-21T03:09:40.807Z,101014.78
2018-12-21T03:11:42.191Z,101008.94
2018-12-21T03:13:43.638Z,101007.46
2018-12-21T03:15:45.102Z,101010.08
2018-12-21T03:17:46.613Z,101010.37
2018-12-21T03:19:48.119Z,101010.97
2018-12-21T03:21:49.574Z,101008.74
2018-12-21T03:23:50.998Z,101008.42
2018-12-21T03:25:52.448Z,101006.64
2018-12-21T03:27:53.893Z,101005.18
2018-12-21T03:29:55.406Z,100996.67
2018-12-21T03:31:56.991Z,100999.30
2018-12-21T03:33:58.522Z,100998.20
2018-12-21T03:36:00.122Z,100991.53
2018-12-21T03:38:01.640Z,100985.41
2018-12-21T03:40:04.679Z,100983.67
2018-12-21T03:42:06.245Z,100974.27
2018-12-21T03:44:07.905Z,100975.19
2018-12-21T03:46:09.730Z,100972.23
2018-12-21T03:48:11.171Z,100964.95
2018-12-21T03:50:12.650Z,100969.19
2018-12-21T03:52:24.620Z,100969.61
2018-12-21T03:54:23.960Z,100968.54
2018-12-21T03:56:25.379Z,100964.70
2018-12-21T03:58:26.958Z,100965.78
2018-12-21T04:00:28.432Z,100956.73
2018-12-21T04:02:29.893Z,100952.74
2018-12-21T04:04:31.372Z,100956.98
2018-12-21T04:06:32.800Z,100951.45
2018-12-21T04:08:34.248Z,100943.66
2018-12-21T04:10:35.795Z,100946.25
2018-12-21T04:12:37.201Z,100947.84
2018-12-21T04:14:38.738Z,100943.17
2018-12-21T04:16:40.187Z,100935.34
2018-12-21T04:18:41.550Z,100941.76
2018-12-21T04:20:43.026Z,100940.89
2018-12-21T04:22:44.501Z,100942.06
2018-12-21T04:24:45.934Z,100939.49
2018-12-21T04:26:47.405Z,100945.14
2018-12-21T04:28:48.810Z,100942.33
2018-12-21T04:30:50.238Z,100941.77
2018-12-21T04:32:51.730Z,100940.89
2018-12-21T04:34:53.256Z,100937.05
2018-12-21T04:36:54.753Z,100945.42
2018-12-21T04:38:56.280Z,100938.58
2018-12-21T04:40:57.682Z,100942.05
2018-12-21T04:42:59.147Z,100949.37
2018-12-21T04:45:00.497Z,100943.83
2018-12-21T04:47:01.916Z,100948.25
2018-12-21T04:49:03.467Z,100946.87
2018-12-21T04:51:04.932Z,100941.06
2018-12-21T04:53:06.406Z,100947.59
2018-12-21T04:55:07.837Z,100946.87
2018-12-21T04:57:09.212Z,100940.00
2018-12-21T04:59:10.716Z,100936.63
2018-12-21T05:01:12.058Z,100932.57
2018-12-21T05:03:13.717Z,100932.20
2018-12-21T05:05:15.149Z,100932.45
2018-12-21T05:07:16.929Z,100935.47
2018-12-21T05:09:21.692Z,100929.63
2018-12-21T05:11:25.135Z,100924.80
2018-12-21T05:13:37.701Z,100921.22
2018-12-21T05:16:01.924Z,100920.72
2018-12-21T05:18:03.574Z,100919.08
2018-12-21T05:20:05.874Z,100924.55
2018-12-21T05:22:11.230Z,100924.36
2018-12-21T05:24:28.449Z,100920.14
2018-12-21T05:26:33.380Z,100922.02
2018-12-21T05:28:55.283Z,100918.77
2018-12-21T05:33:42.057Z,100915.39
2018-12-21T05:35:53.860Z,100912.55
2018-12-21T05:38:01.903Z,100904.60
2018-12-21T05:40:06.759Z,100898.42
2018-12-21T05:42:12.190Z,100896.54
2018-12-21T05:44:19.930Z,100894.55
2018-12-21T05:46:31.768Z,100890.75
2018-12-21T05:48:36.895Z,100882.84
2018-12-21T05:50:44.670Z,100883.89
2018-12-21T05:53:00.737Z,100879.56
2018-12-21T05:55:04.555Z,100872.88
2018-12-21T05:57:16.292Z,100871.80
2018-12-21T05:59:28.250Z,100873.66
2018-12-21T06:01:47.333Z,100866.92
2018-12-21T06:04:02.748Z,100862.16
2018-12-21T06:06:04.225Z,100860.17
2018-12-21T06:08:08.939Z,100855.29
2018-12-21T06:10:13.915Z,100848.91
2018-12-21T06:12:21.896Z,100842.64
2018-12-21T06:14:31.439Z,100837.28
2018-12-21T06:16:34.058Z,100835.73
2018-12-21T06:18:37.590Z,100825.98
2018-12-21T06:20:49.482Z,100823.64
2018-12-21T06:22:54.450Z,100821.36
2018-12-21T06:25:02.551Z,100818.98
2018-12-21T06:27:14.026Z,100821.08
2018-12-21T06:29:17.010Z,100806.43
2018-12-21T06:31:24.692Z,100799.94
2018-12-21T06:33:41.840Z,100805.09
2018-12-21T06:36:07.281Z,100806.17
2018-12-21T06:38:12.456Z,100804.75
2018-12-21T06:40:24.095Z,100805.27
2018-12-21T06:42:32.318Z,100803.56
2018-12-21T06:44:44.004Z,100764.63
2018-12-21T06:46:48.679Z,100795.50
2018-12-21T06:48:56.217Z,100799.23
2018-12-21T06:51:04.117Z,100793.93
2018-12-21T06:53:17.874Z,100800.20
2018-12-21T06:55:21.969Z,100800.94
2018-12-21T06:57:27.632Z,100795.12
2018-12-21T06:59:35.218Z,100797.26
2018-12-21T07:01:42.931Z,100794.16
2018-12-21T07:03:54.744Z,100790.14
2018-12-21T07:05:59.898Z,100788.06
2018-12-21T07:08:07.552Z,100784.27
2018-12-21T07:10:15.507Z,100782.16
2018-12-21T07:12:27.157Z,100779.05
2018-12-21T07:14:34.957Z,100785.53
2018-12-21T07:16:43.088Z,100763.83
2018-12-21T07:18:55.058Z,100785.20
2018-12-21T07:20:56.612Z,100782.15
2018-12-21T07:22:58.082Z,100774.74
2018-12-21T07:24:59.465Z,100775.23
2018-12-21T07:27:00.917Z,100772.45
2018-12-21T07:29:02.337Z,100764.00
2018-12-21T07:31:05.857Z,100761.11
2018-12-21T07:33:07.314Z,100760.94
2018-12-21T07:35:08.760Z,100761.52
2018-12-21T07:37:14.135Z,100754.34
2018-12-21T07:39:35.474Z,100754.27
2018-12-21T07:41:43.501Z,100755.02
2018-12-21T07:43:58.671Z,100753.96
2018-12-21T07:46:03.504Z,100751.27
2018-12-21T07:48:18.102Z,100741.28
2018-12-21T07:50:21.243Z,100746.36
2018-12-21T07:52:31.022Z,100744.81
2018-12-21T07:54:35.817Z,100738.52
2018-12-21T07:56:47.755Z,100734.50
2018-12-21T07:58:57.361Z,100732.27
2018-12-21T08:01:12.282Z,100732.80
2018-12-21T08:03:17.277Z,100734.22
2018-12-21T08:05:22.281Z,100728.08
2018-12-21T08:07:29.723Z,100730.58
2018-12-21T08:09:44.550Z,100719.75
2018-12-21T08:11:49.548Z,100718.03
2018-12-21T08:14:01.162Z,100717.80
2018-12-21T08:16:06.942Z,100714.69
2018-12-21T08:18:12.365Z,100710.00
2018-12-21T08:20:21.720Z,100712.56
2018-12-21T08:22:36.452Z,100703.23
2018-12-21T08:24:47.308Z,100700.71
2018-12-21T08:26:57.197Z,100694.59
2018-12-21T08:29:08.947Z,100694.52
2018-12-21T08:31:20.826Z,100688.55
2018-12-21T08:33:35.685Z,100685.84
2018-12-21T08:35:47.592Z,100681.77
2018-12-21T08:37:55.343Z,100690.34
2018-12-21T08:40:09.889Z,100680.03
2018-12-21T08:42:17.467Z,100680.72
2018-12-21T08:44:24.873Z,100661.91
2018-12-21T08:46:27.534Z,100660.50
2018-12-21T08:48:32.131Z,100665.02
2018-12-21T08:50:37.200Z,100666.22
2018-12-21T08:52:44.737Z,100663.83
2018-12-21T08:54:52.477Z,100662.20
2018-12-21T08:56:57.435Z,100661.39
2018-12-21T08:59:02.500Z,100652.90
2018-12-21T09:01:11.903Z,100650.98
2018-12-21T09:03:19.753Z,100642.42
2018-12-21T09:05:27.620Z,100647.91
2018-12-21T09:07:37.150Z,100635.80
2018-12-21T09:09:42.376Z,100633.02
2018-12-21T09:11:49.975Z,100624.68
2018-12-21T09:13:54.768Z,100623.34
2018-12-21T09:16:02.369Z,100619.30
2018-12-21T09:18:10.259Z,100619.73
2018-12-21T09:20:15.299Z,100619.95
2018-12-21T09:22:20.074Z,100615.55
2018-12-21T09:24:27.672Z,100610.50
2018-12-21T09:26:42.407Z,100608.09
2018-12-21T09:28:45.432Z,100607.90
2018-12-21T09:30:53.102Z,100605.74
2018-12-21T09:33:00.940Z,100601.66
2018-12-21T09:35:08.613Z,100597.77
2018-12-21T09:37:16.648Z,100594.83
2018-12-21T09:39:31.541Z,100589.55
2018-12-21T09:41:36.259Z,100584.34
2018-12-21T09:43:40.771Z,100577.71
2018-12-21T09:45:45.568Z,100572.23
2018-12-21T09:47:50.267Z,100571.73
2018-12-21T09:49:53.174Z,100566.27
2018-12-21T09:52:01.023Z,100566.42
2018-12-21T09:54:09.871Z,100560.27
2018-12-21T09:56:13.225Z,100560.67
2018-12-21T09:58:20.764Z,100550.52
2018-12-21T10:00:25.708Z,100551.59
2018-12-21T10:02:35.835Z,100546.52
2018-12-21T10:04:38.595Z,100538.44
2018-12-21T10:06:48.407Z,100534.91
2018-12-21T10:09:00.202Z,100527.39
2018-12-21T10:11:12.002Z,100523.77
2018-12-21T10:13:19.594Z,100515.74
2018-12-21T10:15:34.629Z,100514.02
2018-12-21T10:17:39.710Z,100504.73
2018-12-21T10:19:47.318Z,100500.98
2018-12-21T10:21:55.250Z,100493.27
2018-12-21T10:24:00.530Z,100483.23
2018-12-21T10:26:05.094Z,100475.83
2018-12-21T10:28:09.823Z,100477.41
2018-12-21T10:30:14.846Z,100467.00
2018-12-21T10:32:22.207Z,100464.16
2018-12-21T10:34:30.454Z,100454.78
2018-12-21T10:36:38.252Z,100451.21
2018-12-21T10:38:45.890Z,100436.41
2018-12-21T10:41:00.591Z,100424.67
2018-12-21T10:43:05.558Z,100429.94
2018-12-21T10:45:13.551Z,100422.64
2018-12-21T10:47:29.933Z,100402.81
2018-12-21T10:49:37.645Z,100398.55
2018-12-21T10:51:52.363Z,100397.41
2018-12-21T10:53:57.256Z,100383.44
2018-12-21T10:56:05.019Z,100383.40
2018-12-21T10:58:14.000Z,100377.98
2018-12-21T11:00:18.795Z,100372.37
2018-12-21T11:02:23.489Z,100366.64
2018-12-21T11:04:32.066Z,100361.14
2018-12-21T11:06:50.779Z,100352.91
2018-12-21T11:09:04.087Z,100354.84
2018-12-21T11:11:29.527Z,100349.45
2018-12-21T11:13:34.717Z,100341.82
2018-12-21T11:18:21.147Z,100335.42
2018-12-21T11:20:28.839Z,100324.34
2018-12-21T11:22:36.763Z,100318.27
2018-12-21T11:24:44.488Z,100322.33
2018-12-21T11:26:57.176Z,100317.22
2018-12-21T11:29:05.207Z,100311.16
2018-12-21T11:31:13.017Z,100303.41
2018-12-21T11:33:20.624Z,100295.49
2018-12-21T11:35:28.570Z,100286.14
2018-12-21T11:37:43.272Z,100274.80
2018-12-21T11:39:48.184Z,100270.89
2018-12-21T11:41:53.604Z,100270.72
2018-12-21T11:44:08.076Z,100267.73
2018-12-21T11:46:12.911Z,100259.25
2018-12-21T11:48:20.516Z,100258.70
2018-12-21T11:50:28.135Z,100252.12
2018-12-21T11:52:35.773Z,100255.02
2018-12-21T11:54:44.463Z,100256.14
2018-12-21T11:56:52.153Z,100243.90
2018-12-21T11:59:06.929Z,100234.05
2018-12-21T12:01:16.553Z,100218.14
2018-12-21T12:03:21.463Z,100218.42
2018-12-21T12:05:29.287Z,100212.38
2018-12-21T12:07:36.937Z,100197.28
2018-12-21T12:09:44.823Z,100193.88
2018-12-21T12:11:56.523Z,100181.14
2018-12-21T12:14:03.434Z,100168.94
2018-12-21T12:16:11.776Z,100170.13
2018-12-21T12:18:23.493Z,100165.47
2018-12-21T12:20:31.382Z,100164.39
2018-12-21T12:22:39.760Z,100159.16
2018-12-21T12:24:52.926Z,100151.70
2018-12-21T12:27:00.994Z,100150.26
2018-12-21T12:29:08.724Z,100135.47
2018-12-21T12:31:18.556Z,100134.28
2018-12-21T12:33:30.245Z,100130.23
2018-12-21T12:35:34.923Z,100123.07
2018-12-21T12:37:39.404Z,100116.43
2018-12-21T12:39:47.393Z,100113.55
2018-12-21T12:41:54.883Z,100111.44
2018-12-21T12:43:59.913Z,100100.08
2018-12-21T12:46:05.381Z,100102.98
2018-12-21T12:48:08.951Z,100091.70
2018-12-21T12:50:18.457Z,100093.84
2018-12-21T12:52:23.003Z,100094.33
2018-12-21T12:54:30.411Z,100081.67
2018-12-21T12:56:38.491Z,100080.23
2018-12-21T12:58:43.899Z,100072.98
2018-12-21T13:00:58.208Z,100066.99
2018-12-21T13:03:05.858Z,100061.36
2018-12-21T13:05:17.565Z,100052.29
2018-12-21T13:07:31.970Z,100051.53
2018-12-21T13:09:36.824Z,100045.25
2018-12-21T13:11:41.305Z,100040.06
2018-12-21T13:13:48.931Z,100031.22
2018-12-21T13:15:56.715Z,100025.64
2018-12-21T13:17:59.461Z,100029.28
2018-12-21T13:20:08.368Z,100015.98
2018-12-21T13:22:17.115Z,100018.59
2018-12-21T13:24:28.905Z,100011.38
2018-12-21T13:26:38.626Z,99996.59
2018-12-21T13:28:48.647Z,99993.05
2018-12-21T13:30:56.369Z,99990.62
2018-12-21T13:33:07.932Z,99981.04
2018-12-21T13:35:15.821Z,99970.61
2018-12-21T13:37:25.484Z,99972.09
2018-12-21T13:39:34.091Z,99963.20
2018-12-21T13:41:41.974Z,99956.97
2018-12-21T13:43:56.596Z,99960.77
2018-12-21T13:46:04.385Z,99955.55
2018-12-21T13:48:16.085Z,99952.43
2018-12-21T13:50:24.187Z,99937.84
2018-12-21T13:52:28.794Z,99940.91
2018-12-21T13:54:40.550Z,99935.48
2018-12-21T13:57:02.377Z,99931.16
2018-12-21T13:59:15.154Z,99927.58
2018-12-21T14:01:22.950Z,99925.11
2018-12-21T14:03:30.720Z,99917.77
2018-12-21T14:05:40.553Z,99909.39
2018-12-21T14:08:02.379Z,99903.99
2018-12-21T14:10:10.403Z,99907.98
2018-12-21T14:14:47.206Z,99899.26
2018-12-21T14:16:48.668Z,99888.73
2018-12-21T14:18:50.262Z,99887.30
2018-12-21T14:20:51.774Z,99875.97
2018-12-21T14:22:53.254Z,99870.64
2018-12-21T14:24:54.684Z,99870.90
2018-12-21T14:26:56.142Z,99868.03
2018-12-21T14:28:57.584Z,99863.14
2018-12-21T14:30:59.184Z,99859.89
2018-12-21T14:33:00.672Z,99862.99
2018-12-21T14:35:02.815Z,99859.78
2018-12-21T14:37:04.360Z,99854.14
2018-12-21T14:39:06.338Z,99849.55
2018-12-21T14:41:07.795Z,99843.88
2018-12-21T14:43:09.420Z,99836.20
2018-12-21T14:45:10.916Z,99829.78
2018-12-21T14:47:12.447Z,99818.72
2018-12-21T14:49:13.938Z,99814.72
2018-12-21T14:51:15.362Z,99809.73
2018-12-21T14:53:16.802Z,99801.27
2018-12-21T14:55:18.323Z,99796.42
2018-12-21T14:57:19.911Z,99793.89
2018-12-21T14:59:21.400Z,99796.84
2018-12-21T15:01:22.835Z,99792.30
2018-12-21T15:03:24.299Z,99789.00
2018-12-21T15:05:34.627Z,99778.64
2018-12-21T15:07:44.449Z,99774.59
2018-12-21T15:09:52.171Z,99770.03
2018-12-21T15:12:04.122Z,99772.95
2018-12-21T15:14:12.627Z,99770.78
2018-12-21T15:16:20.379Z,99761.16
2018-12-21T15:18:32.539Z,99758.53
2018-12-21T15:20:40.362Z,99752.58
2018-12-21T15:22:45.323Z,99747.05
2018-12-21T15:24:53.184Z,99738.70
2018-12-21T15:26:57.753Z,99737.38
2018-12-21T15:29:05.549Z,99735.71
2018-12-21T15:31:15.445Z,99724.50
2018-12-21T15:33:27.837Z,99722.14
2018-12-21T15:35:46.462Z,99721.52
2018-12-21T15:37:54.442Z,99714.91
2018-12-21T15:40:16.261Z,99704.31
2018-12-21T15:42:17.649Z,99698.69
2018-12-21T15:44:19.025Z,99696.09
2018-12-21T15:46:20.469Z,99696.28
2018-12-21T15:48:21.892Z,99697.73
2018-12-21T15:50:23.426Z,99688.69
2018-12-21T15:52:28.522Z,99688.05
2018-12-21T15:54:42.045Z,99680.22
2018-12-21T15:56:46.717Z,99674.42
2018-12-21T15:59:08.502Z,99666.67
2018-12-21T16:01:18.522Z,99665.67
2018-12-21T16:03:28.102Z,99670.68
2018-12-21T16:05:33.704Z,99654.94
2018-12-21T16:07:37.530Z,99652.81
2018-12-21T16:09:40.564Z,99644.67
2018-12-21T16:11:45.834Z,99643.94
2018-12-21T16:14:11.731Z,99633.30
2018-12-21T16:16:13.457Z,99636.33
2018-12-21T16:18:15.341Z,99641.50
2018-12-21T16:20:39.563Z,99628.95
2018-12-21T16:22:42.527Z,99611.11
2018-12-21T16:24:44.550Z,99612.75
2018-12-21T16:26:46.425Z,99614.62
2018-12-21T16:28:48.404Z,99607.78
2018-12-21T16:30:50.129Z,99616.59
2018-12-21T16:32:52.161Z,99603.11
2018-12-21T16:34:53.905Z,99604.02
2018-12-21T16:36:59.875Z,99590.48
2018-12-21T16:39:12.433Z,99582.42
2018-12-21T16:41:20.626Z,99604.34
2018-12-21T16:43:22.407Z,99592.81
2018-12-21T16:45:24.173Z,99575.71
2018-12-21T16:47:26.103Z,99571.04
2018-12-21T16:49:35.696Z,99558.74
2018-12-21T16:51:37.536Z,99557.55
2018-12-21T16:53:39.395Z,99577.30
2018-12-21T16:55:47.737Z,99567.36
2018-12-21T16:57:52.827Z,99564.25
2018-12-21T17:00:01.609Z,99558.03
2018-12-21T17:02:12.018Z,99569.56
2018-12-21T17:04:23.827Z,99566.70
2018-12-21T17:06:29.655Z,99556.62
2018-12-21T17:08:33.198Z,99539.98
2018-12-21T17:10:41.817Z,99551.87
2018-12-21T17:12:50.399Z,99557.70
2018-12-21T17:14:58.078Z,99546.69
2018-12-21T17:17:05.062Z,99550.02
2018-12-21T17:19:11.857Z,99556.12
2018-12-21T17:21:18.025Z,99549.34
2018-12-21T17:23:26.602Z,99526.27
2018-12-21T17:25:32.313Z,99540.78
2018-12-21T17:27:35.998Z,99536.61
2018-12-21T17:29:37.749Z,99543.45
2018-12-21T17:31:43.367Z,99539.70
2018-12-21T17:33:48.817Z,99525.19
2018-12-21T17:35:50.627Z,99531.52
2018-12-21T17:38:09.247Z,99539.73
2018-12-21T17:40:17.721Z,99544.25
2018-12-21T17:42:39.298Z,99552.02
2018-12-21T17:44:44.164Z,99531.05
2018-12-21T17:46:54.936Z,99522.20
2018-12-21T17:49:10.596Z,99530.64
2018-12-21T17:51:19.060Z,99539.22
2018-12-21T17:53:26.754Z,99545.05
2018-12-21T17:58:07.491Z,99533.42
2018-12-21T18:00:13.201Z,99537.35
2018-12-21T18:02:22.820Z,99550.13
2018-12-21T18:04:35.251Z,99544.20
2018-12-21T18:06:40.297Z,99546.55
2018-12-21T18:08:48.899Z,99549.63
2018-12-21T18:10:57.650Z,99551.47
2018-12-21T18:13:09.618Z,99545.96
2018-12-21T18:15:21.704Z,99553.50
2018-12-21T18:17:30.145Z,99543.21
2018-12-21T18:19:38.013Z,99539.02
2018-12-21T18:21:48.340Z,99507.99
2018-12-21T18:24:07.639Z,99537.05
2018-12-21T18:26:13.354Z,99545.02
2018-12-21T18:28:24.557Z,99538.34
2018-12-21T18:30:57.072Z,99534.14
2018-12-21T18:33:10.467Z,99531.32
2018-12-21T18:37:59.940Z,99527.73
2018-12-21T18:40:10.040Z,99528.04
2018-12-21T18:42:18.993Z,99526.70
2018-12-21T18:44:26.030Z,99516.22
2018-12-21T18:46:30.981Z,99517.14
2018-12-21T18:48:42.735Z,99520.02
2018-12-21T18:50:56.639Z,99528.67
2018-12-21T18:53:01.780Z,99539.20
2018-12-21T18:55:12.849Z,99537.07
2018-12-21T18:57:16.821Z,99533.50
2018-12-21T18:59:25.008Z,99521.55
2018-12-21T19:01:29.857Z,99525.91
2018-12-21T19:03:39.573Z,99529.47
2018-12-21T19:05:44.251Z,99527.29
2018-12-21T19:07:51.768Z,99526.05
2018-12-21T19:09:57.008Z,99542.91
2018-12-21T19:12:04.979Z,99530.91
2018-12-21T19:14:12.521Z,99531.02
2018-12-21T19:16:27.615Z,99526.41
2018-12-21T19:18:35.156Z,99536.56
2018-12-21T19:20:42.916Z,99532.00
2018-12-21T19:22:50.490Z,99539.27
2018-12-21T19:24:58.558Z,99535.63
2018-12-21T19:27:03.293Z,99535.45
2018-12-21T19:29:29.374Z,99539.72
2018-12-21T19:34:08.839Z,99556.08
2018-12-21T19:36:13.704Z,99535.11
2018-12-21T19:38:19.131Z,99534.43
2018-12-21T19:40:22.512Z,99535.34
2018-12-21T19:42:34.136Z,99538.44
2018-12-21T19:44:38.821Z,99544.14
2018-12-21T19:46:46.509Z,99535.89
2018-12-21T19:48:55.312Z,99530.88
2018-12-21T19:51:00.076Z,99527.55
2018-12-21T19:53:06.094Z,99527.66
2018-12-21T19:55:17.822Z,99526.08
2018-12-21T19:57:29.615Z,99526.85
2018-12-21T19:59:37.293Z,99526.13
2018-12-21T20:01:45.769Z,99514.28
2018-12-21T20:03:50.969Z,99505.30
2018-12-21T20:05:54.273Z,99507.13
2018-12-21T20:07:59.117Z,99504.34
2018-12-21T20:10:08.702Z,99518.08
2018-12-21T20:12:13.813Z,99509.81
2018-12-21T20:14:29.131Z,99512.27
2018-12-21T20:16:41.318Z,99514.77
2018-12-21T20:18:55.658Z,99523.22
2018-12-21T20:20:57.107Z,99519.59
2018-12-21T20:22:58.554Z,99515.32
2018-12-21T20:24:59.930Z,99510.12
2018-12-21T20:27:04.120Z,99519.20
2018-12-21T20:29:05.936Z,99527.11
2018-12-21T20:31:07.466Z,99526.14
2018-12-21T20:33:08.914Z,99528.16
2018-12-21T20:35:10.741Z,99535.73
2018-12-21T20:37:12.183Z,99522.83
2018-12-21T20:39:13.935Z,99538.48
2018-12-21T20:41:15.611Z,99541.96
2018-12-21T20:43:17.168Z,99547.24
2018-12-21T20:45:18.762Z,99546.53
2018-12-21T20:47:20.372Z,99547.34
2018-12-21T20:49:21.808Z,99553.97
2018-12-21T20:51:23.553Z,99562.03
2018-12-21T20:53:26.318Z,99564.39
2018-12-21T20:55:27.916Z,99562.49
2018-12-21T20:57:29.579Z,99561.38
2018-12-21T20:59:31.002Z,99563.65
2018-12-21T21:01:32.613Z,99570.78
2018-12-21T21:03:34.124Z,99564.70
2018-12-21T21:05:35.589Z,99574.10
2018-12-21T21:07:37.126Z,99580.44
2018-12-21T21:09:38.566Z,99581.42
2018-12-21T21:14:38.365Z,99583.73
2018-12-21T21:16:42.463Z,99586.93
2018-12-21T21:18:43.924Z,99590.28
2018-12-21T21:20:45.269Z,99586.64
2018-12-21T21:22:46.789Z,99590.88
2018-12-21T21:24:49.264Z,99593.73
2018-12-21T21:26:51.026Z,99592.26
2018-12-21T21:28:52.428Z,99601.30
2018-12-21T21:33:32.291Z,99592.73
2018-12-21T21:35:33.719Z,99601.57
2018-12-21T21:37:35.133Z,99601.02
2018-12-21T21:39:43.622Z,99600.97
2018-12-21T21:41:51.333Z,99603.64
2018-12-21T21:43:58.747Z,99606.51
2018-12-21T21:46:03.635Z,99606.89
2018-12-21T21:48:11.190Z,99612.20
2018-12-21T21:50:16.615Z,99623.12
2018-12-21T21:52:33.908Z,99632.47
2018-12-21T21:54:37.068Z,99628.58
2018-12-21T21:56:44.658Z,99636.05
2018-12-21T21:58:49.677Z,99627.15
2018-12-21T22:00:54.820Z,99632.45
2018-12-21T22:03:11.810Z,99622.75
2018-12-21T22:05:26.501Z,99627.13
2018-12-21T22:07:27.927Z,99623.69
2018-12-21T22:09:33.019Z,99626.33
2018-12-21T22:11:52.143Z,99631.45
2018-12-21T22:13:56.694Z,99630.14
2018-12-21T22:15:58.144Z,99635.76
2018-12-21T22:17:59.639Z,99635.59
2018-12-21T22:20:01.334Z,99634.36
2018-12-21T22:22:02.975Z,99633.42
2018-12-21T22:24:04.423Z,99641.02
2018-12-21T22:26:05.842Z,99642.41
2018-12-21T22:28:14.191Z,99630.04
2018-12-21T22:30:18.999Z,99642.34
2018-12-21T22:32:26.309Z,99652.05
2018-12-21T22:37:08.465Z,99639.08
2018-12-21T22:39:19.881Z,99645.96
2018-12-21T22:41:27.169Z,99644.13
2018-12-21T22:43:36.915Z,99642.11
2018-12-21T22:45:41.691Z,99642.08
2018-12-21T22:47:46.433Z,99633.65
2018-12-21T22:49:51.188Z,99646.92
2018-12-21T22:52:05.681Z,99645.63
2018-12-21T22:54:10.793Z,99647.88
2018-12-21T22:56:15.650Z,99661.54
2018-12-21T23:00:55.370Z,99663.19
2018-12-21T23:02:57.350Z,99673.65
2018-12-21T23:04:58.905Z,99671.41
2018-12-21T23:07:00.339Z,99687.63
2018-12-21T23:09:03.991Z,99675.16
2018-12-21T23:11:05.426Z,99677.02
2018-12-21T23:13:06.953Z,99668.88
2018-12-21T23:15:08.944Z,99664.61
2018-12-21T23:17:10.371Z,99677.17
2018-12-21T23:19:11.801Z,99679.99
2018-12-21T23:21:13.358Z,99674.02
2018-12-21T23:23:14.778Z,99677.72
2018-12-21T23:25:16.229Z,99673.97
2018-12-21T23:27:17.673Z,99687.05
2018-12-21T23:29:19.108Z,99682.63
2018-12-21T23:31:20.546Z,99709.91
2018-12-21T23:33:22.039Z,99689.70
2018-12-21T23:35:23.471Z,99684.03
2018-12-21T23:37:24.886Z,99684.69
2018-12-21T23:39:26.499Z,99680.41
2018-12-21T23:41:29.606Z,99682.58
2018-12-21T23:43:31.126Z,99698.56
2018-12-21T23:45:32.610Z,99682.28
2018-12-21T23:47:34.072Z,99721.45
2018-12-21T23:49:35.509Z,99720.61
2018-12-21T23:51:37.401Z,99714.50
2018-12-21T23:53:38.839Z,99710.03
2018-12-21T23:55:40.280Z,99725.73
2018-12-21T23:57:41.794Z,99733.02
2018-12-21T23:59:43.187Z,99728.58
